Hovedside
METAR-TAF:

METAR-TAF

Lufthavner :

Honningsvåg lufthavn. Valan

Honningsvåg, Norge

breddegrad: 71-01N, lengdegrad: 025-59E, høyde over havet: 1 m

Gjeldene værobservasjon

Denne rapporten ble laget for 38 minutter siden, klokken 14:50 UTC
Vind 10 kt fra Vest
Temperatur 12°C
Luftfuktighet 76%
Trykk 1012 hPa
Sikt 10 km eller mer
Få skyer i en høyde av 1900 ft
Spredte skyer i en høyde av 5100 ft
Brutte skyer i en høyde av 6700 ft

METAR: ENHV 241450Z 28010KT 9999 FEW019 SCT051 BKN067 12/08 Q1012

Tid: 17:28 (15:28 UTC)

Varsel

Denne rapporten ble laget for 1 time og 28 minutter siden, klokken 14:00 UTC
Varsel gyldig fra 24. klokken 15 UTC til 24. klokken 22 UTC
Vind 9 kt fra Vest
Sikt 10 km eller mer
Få skyer i en høyde av 1200 ft
Brutte skyer i en høyde av 3000 ft
lett regn,

TAF: ENHV 241400Z 2415/2422 28009KT 9999 -RA FEW012 BKN030

Værobservasjoner og værvarsel for over 4000 flyplasser (METAR- og TAF-rapporter).

Tilgjengelige stasjoner er representert av de røde og gule prikkene på kartet.

Hold musepekeren over prikken for å se navnet på stasjonen.

Klikk så for å se værobservasjoner og -varsler.

For å forandre kartet kan du klikke på den grønne knappen med svart kryss for å zoome inn, på den grønne knappen med strek for å zoome ut, eller på de grønne pilene for å se tilstøtende kart.


METAR-TAF: